Time;durP1;ratioP1;P1;durP2;ratioP2;P2;SDS_P1;SDS_P2;PMS_P1;PMS_P2;Temp;Humidity;BMP_temperature;BMP_pressure;BME280_temperature;BME280_humidity;BME280_pressure;Samples;Min_cycle;Max_cycle;Signal;HPM_P1;HPM_P2
2022/03/25 00:00:36;;;;;;;307.15;160.25;;;;;;;;;;5031000;28;20052;-63
2022/03/25 00:03:04;;;;;;;285.23;153.88;;;;;;;;;;5030554;28;20049;-64
2022/03/25 00:05:31;;;;;;;304.50;161.90;;;;;;;;;;5028345;28;20073;-63
2022/03/25 00:07:57;;;;;;;340.45;166.77;;;;;;;;;;5009124;28;20046;-63
2022/03/25 00:10:23;;;;;;;288.98;154.00;;;;;;;;;;5029938;28;20068;-63
2022/03/25 00:12:50;;;;;;;312.98;155.55;;;;;;;;;;5031014;28;20037;-63
2022/03/25 00:15:16;;;;;;;316.15;158.18;;;;;;;;;;5029090;28;20453;-62
2022/03/25 00:17:42;;;;;;;299.50;155.57;;;;;;;;;;5030283;28;20042;-63
2022/03/25 00:20:09;;;;;;;279.13;147.38;;;;;;;;;;5028638;28;20045;-63
2022/03/25 00:22:35;;;;;;;266.58;147.68;;;;;;;;;;5028727;28;20439;-63
2022/03/25 00:25:03;;;;;;;270.63;148.13;;;;;;;;;;5028526;28;20041;-64
2022/03/25 00:27:29;;;;;;;282.08;149.57;;;;;;;;;;5022670;28;20117;-63
2022/03/25 00:29:55;;;;;;;276.15;148.20;;;;;;;;;;5030034;28;20041;-63
2022/03/25 00:32:21;;;;;;;262.23;142.10;;;;;;;;;;5029886;28;20191;-63
2022/03/25 00:34:47;;;;;;;268.50;146.05;;;;;;;;;;5025664;28;20627;-63
2022/03/25 00:37:13;;;;;;;258.92;141.98;;;;;;;;;;5028261;28;20427;-64
2022/03/25 00:39:39;;;;;;;264.73;145.43;;;;;;;;;;5028553;28;20125;-63
2022/03/25 00:42:06;;;;;;;265.83;143.80;;;;;;;;;;5028563;28;20494;-64
2022/03/25 00:44:32;;;;;;;253.52;143.40;;;;;;;;;;5029238;28;20072;-63
2022/03/25 00:46:58;;;;;;;261.15;144.20;;;;;;;;;;5028010;28;20095;-63
2022/03/25 00:49:27;;;;;;;235.90;140.57;;;;;;;;;;5026560;28;20049;-63
2022/03/25 00:51:54;;;;;;;250.32;141.63;;;;;;;;;;5027106;28;20120;-62
2022/03/25 00:54:20;;;;;;;245.77;142.10;;;;;;;;;;5026005;28;20030;-62
2022/03/25 00:56:46;;;;;;;245.98;142.68;;;;;;;;;;5027835;28;20108;-63
2022/03/25 00:59:12;;;;;;;243.40;139.93;;;;;;;;;;5012484;28;20124;-62
2022/03/25 01:01:39;;;;;;;237.18;137.10;;;;;;;;;;5012961;28;20056;-63
2022/03/25 01:04:05;;;;;;;225.48;132.52;;;;;;;;;;5030988;28;20191;-62
2022/03/25 01:06:31;;;;;;;221.30;132.50;;;;;;;;;;5029465;28;20094;-62
2022/03/25 01:08:57;;;;;;;224.25;135.18;;;;;;;;;;5029732;28;20048;-62
2022/03/25 01:11:23;;;;;;;226.00;134.98;;;;;;;;;;5030403;28;20041;-63
2022/03/25 01:13:50;;;;;;;223.93;134.45;;;;;;;;;;5030439;28;20102;-62
2022/03/25 01:16:16;;;;;;;192.63;124.40;;;;;;;;;;5030363;28;20041;-63
2022/03/25 01:18:42;;;;;;;188.85;120.28;;;;;;;;;;5030500;28;20044;-62
2022/03/25 01:21:08;;;;;;;188.88;120.88;;;;;;;;;;5045706;28;20084;-63
2022/03/25 01:23:34;;;;;;;209.27;126.28;;;;;;;;;;5028479;28;20047;-62
2022/03/25 01:26:00;;;;;;;192.70;120.50;;;;;;;;;;5045853;28;20049;-62
2022/03/25 01:28:32;;;;;;;183.50;116.95;;;;;;;;;;5012988;28;20116;-63
2022/03/25 01:30:59;;;;;;;191.15;120.68;;;;;;;;;;5013462;28;20419;-63
2022/03/25 01:33:25;;;;;;;189.57;120.90;;;;;;;;;;5030946;28;20048;-63
2022/03/25 01:35:51;;;;;;;180.20;115.18;;;;;;;;;;5030442;28;20099;-63
2022/03/25 01:38:17;;;;;;;178.82;114.68;;;;;;;;;;5029233;28;20061;-62
2022/03/25 01:40:43;;;;;;;184.15;116.68;;;;;;;;;;5013286;28;20076;-62
2022/03/25 01:43:09;;;;;;;170.27;112.68;;;;;;;;;;5028642;28;20117;-62
2022/03/25 01:45:37;;;;;;;166.10;108.78;;;;;;;;;;5028194;28;20550;-61
2022/03/25 01:48:07;;;;;;;160.95;106.78;;;;;;;;;;5028372;28;20367;-63
2022/03/25 01:50:33;;;;;;;162.30;107.03;;;;;;;;;;5028453;28;20487;-63
2022/03/25 01:52:59;;;;;;;171.50;111.43;;;;;;;;;;5012582;28;20044;-63
2022/03/25 01:55:26;;;;;;;162.45;108.10;;;;;;;;;;5028400;28;20128;-63
2022/03/25 01:57:55;;;;;;;150.93;103.32;;;;;;;;;;5030006;28;20577;-63
2022/03/25 02:00:22;;;;;;;155.25;101.63;;;;;;;;;;5029477;28;20063;-62
2022/03/25 02:02:48;;;;;;;151.90;101.05;;;;;;;;;;5012184;28;20399;-62
2022/03/25 02:05:15;;;;;;;140.10;96.88;;;;;;;;;;5029853;28;20046;-62
2022/03/25 02:07:41;;;;;;;142.82;93.93;;;;;;;;;;5028612;28;20752;-62
2022/03/25 02:10:07;;;;;;;142.00;94.72;;;;;;;;;;5028488;28;20042;-62
2022/03/25 02:12:35;;;;;;;143.40;94.30;;;;;;;;;;5028572;28;20051;-63
2022/03/25 02:15:01;;;;;;;145.35;95.90;;;;;;;;;;5028301;28;20045;-64
2022/03/25 02:17:27;;;;;;;146.52;95.85;;;;;;;;;;5029781;28;20045;-61
2022/03/25 02:19:53;;;;;;;149.15;98.30;;;;;;;;;;5030018;28;20079;-62
2022/03/25 02:22:20;;;;;;;141.27;95.85;;;;;;;;;;5029795;28;20037;-62
2022/03/25 02:24:46;;;;;;;144.57;96.32;;;;;;;;;;5029428;28;20662;-64
2022/03/25 02:27:12;;;;;;;139.23;93.68;;;;;;;;;;5030531;28;20431;-62
2022/03/25 02:29:39;;;;;;;140.40;93.15;;;;;;;;;;5028917;28;20045;-61
2022/03/25 02:32:05;;;;;;;140.18;91.03;;;;;;;;;;5030697;28;20042;-60
2022/03/25 02:34:31;;;;;;;140.57;91.20;;;;;;;;;;5028976;28;20471;-61
2022/03/25 02:37:00;;;;;;;131.60;87.22;;;;;;;;;;5027307;28;20499;-61
2022/03/25 02:39:28;;;;;;;113.18;77.65;;;;;;;;;;5029570;28;20065;-61
2022/03/25 02:41:54;;;;;;;106.20;73.93;;;;;;;;;;5028429;28;20103;-61
2022/03/25 02:44:20;;;;;;;95.05;68.40;;;;;;;;;;5029486;28;20045;-62
2022/03/25 02:46:46;;;;;;;103.25;69.93;;;;;;;;;;5030017;28;20105;-61
2022/03/25 02:49:12;;;;;;;103.68;73.28;;;;;;;;;;5028464;28;20040;-62
2022/03/25 02:51:38;;;;;;;117.25;77.78;;;;;;;;;;5011737;28;20517;-61
2022/03/25 02:54:04;;;;;;;120.35;81.60;;;;;;;;;;5027476;28;20037;-62
2022/03/25 02:56:30;;;;;;;109.65;73.50;;;;;;;;;;5029003;28;20125;-61
2022/03/25 02:58:56;;;;;;;102.22;70.57;;;;;;;;;;5030578;28;20578;-62
2022/03/25 03:01:22;;;;;;;97.43;67.70;;;;;;;;;;5030270;28;20072;-61
2022/03/25 03:03:48;;;;;;;95.35;65.82;;;;;;;;;;5028063;28;20033;-61
2022/03/25 03:06:14;;;;;;;97.78;65.32;;;;;;;;;;5027757;28;20487;-62
2022/03/25 03:08:41;;;;;;;96.15;64.75;;;;;;;;;;5044979;28;20041;-61
2022/03/25 03:11:08;;;;;;;89.80;62.03;;;;;;;;;;5029329;28;20121;-62
2022/03/25 03:13:34;;;;;;;85.88;60.80;;;;;;;;;;5029415;28;20041;-61
2022/03/25 03:16:00;;;;;;;90.22;61.58;;;;;;;;;;5028351;28;20389;-61
2022/03/25 03:18:27;;;;;;;94.15;63.20;;;;;;;;;;5027797;28;20065;-62
2022/03/25 03:20:53;;;;;;;90.38;63.88;;;;;;;;;;5011132;28;20099;-61
2022/03/25 03:23:19;;;;;;;89.13;62.78;;;;;;;;;;5027505;28;20520;-61
2022/03/25 03:25:46;;;;;;;97.32;67.10;;;;;;;;;;5029826;28;20052;-61
2022/03/25 03:28:13;;;;;;;98.63;69.88;;;;;;;;;;5029280;28;20508;-62
2022/03/25 03:30:39;;;;;;;89.22;64.30;;;;;;;;;;5017320;28;20049;-62
2022/03/25 03:33:05;;;;;;;91.97;63.95;;;;;;;;;;5027671;28;20037;-62
2022/03/25 03:35:34;;;;;;;87.90;63.65;;;;;;;;;;5028960;28;20044;-62
2022/03/25 03:38:00;;;;;;;87.15;62.05;;;;;;;;;;5027972;28;20371;-61
2022/03/25 03:40:26;;;;;;;83.65;59.00;;;;;;;;;;5028886;28;20052;-61
2022/03/25 03:42:52;;;;;;;83.40;58.97;;;;;;;;;;5028707;28;20059;-62
2022/03/25 03:45:18;;;;;;;78.72;55.53;;;;;;;;;;5028356;28;20095;-62
2022/03/25 03:47:45;;;;;;;80.47;56.70;;;;;;;;;;5026693;28;20049;-63
2022/03/25 03:50:12;;;;;;;77.70;55.05;;;;;;;;;;5027009;28;20492;-62
2022/03/25 03:52:39;;;;;;;84.35;57.22;;;;;;;;;;5026590;28;20079;-62
2022/03/25 03:55:06;;;;;;;80.25;57.80;;;;;;;;;;5026676;28;20068;-63
2022/03/25 03:57:32;;;;;;;79.60;56.55;;;;;;;;;;5024950;28;20131;-62
2022/03/25 03:59:58;;;;;;;85.38;58.47;;;;;;;;;;5027790;28;20543;-62
2022/03/25 04:02:24;;;;;;;80.85;57.72;;;;;;;;;;5026213;28;20057;-62
2022/03/25 04:04:51;;;;;;;78.40;56.70;;;;;;;;;;5027846;28;20049;-63
2022/03/25 04:07:17;;;;;;;79.53;57.88;;;;;;;;;;5026313;28;20041;-63
2022/03/25 04:09:43;;;;;;;85.72;58.58;;;;;;;;;;5026376;28;20643;-63
2022/03/25 04:12:09;;;;;;;74.47;56.65;;;;;;;;;;5026648;28;20045;-63
2022/03/25 04:14:36;;;;;;;89.10;60.45;;;;;;;;;;5027455;28;20030;-62
2022/03/25 04:17:02;;;;;;;84.78;60.78;;;;;;;;;;5027375;28;20057;-64
2022/03/25 04:19:28;;;;;;;86.05;60.95;;;;;;;;;;5025358;28;20049;-62
2022/03/25 04:21:54;;;;;;;92.47;63.58;;;;;;;;;;5027222;28;20091;-63
2022/03/25 04:24:20;;;;;;;87.60;62.08;;;;;;;;;;5027021;28;20041;-64
2022/03/25 04:26:46;;;;;;;81.05;59.28;;;;;;;;;;5024753;28;20451;-63
2022/03/25 04:29:12;;;;;;;89.30;61.33;;;;;;;;;;5027243;28;20072;-62
2022/03/25 04:31:38;;;;;;;81.60;58.95;;;;;;;;;;5008310;28;20092;-63
2022/03/25 04:34:05;;;;;;;76.93;56.67;;;;;;;;;;5023893;28;20129;-63
2022/03/25 04:36:31;;;;;;;80.60;57.55;;;;;;;;;;5026102;28;20045;-62
2022/03/25 04:38:57;;;;;;;75.82;54.05;;;;;;;;;;5025950;28;20061;-62
2022/03/25 04:41:23;;;;;;;72.03;51.83;;;;;;;;;;5026098;28;20045;-63
2022/03/25 04:43:51;;;;;;;68.63;52.08;;;;;;;;;;5025416;28;20049;-63
2022/03/25 04:46:18;;;;;;;67.35;49.55;;;;;;;;;;5042688;28;20048;-63
2022/03/25 04:48:44;;;;;;;64.30;50.08;;;;;;;;;;5026108;28;20083;-62
2022/03/25 04:51:10;;;;;;;68.32;51.20;;;;;;;;;;5027347;28;20449;-63
2022/03/25 04:53:37;;;;;;;63.70;49.10;;;;;;;;;;5026845;28;20065;-62
2022/03/25 04:56:04;;;;;;;66.05;48.85;;;;;;;;;;5025518;28;20132;-62
2022/03/25 04:58:30;;;;;;;67.43;51.17;;;;;;;;;;5024845;28;20141;-62
2022/03/25 05:00:57;;;;;;;75.38;52.90;;;;;;;;;;5026959;28;20116;-62
2022/03/25 05:03:23;;;;;;;75.53;53.63;;;;;;;;;;5025083;28;20045;-61
2022/03/25 05:05:50;;;;;;;72.75;54.20;;;;;;;;;;5008453;28;20042;-63
2022/03/25 05:08:16;;;;;;;79.80;57.40;;;;;;;;;;5025216;28;20085;-62
2022/03/25 05:10:42;;;;;;;86.78;60.67;;;;;;;;;;5025657;28;20095;-63
2022/03/25 05:13:08;;;;;;;88.28;62.58;;;;;;;;;;5026675;28;20037;-62
2022/03/25 05:15:35;;;;;;;90.75;63.17;;;;;;;;;;5024973;28;20904;-62
2022/03/25 05:18:01;;;;;;;99.43;67.20;;;;;;;;;;5024549;28;20049;-63
2022/03/25 05:20:27;;;;;;;89.32;63.33;;;;;;;;;;5025172;28;20044;-62
2022/03/25 05:22:53;;;;;;;90.60;60.78;;;;;;;;;;5026911;28;20037;-62
2022/03/25 05:25:19;;;;;;;81.80;59.63;;;;;;;;;;5026338;28;20045;-61
2022/03/25 05:27:51;;;;;;;89.88;64.88;;;;;;;;;;5009299;28;20115;-63
2022/03/25 05:30:20;;;;;;;89.32;63.33;;;;;;;;;;5025538;28;20127;-62
2022/03/25 05:32:46;;;;;;;78.72;57.00;;;;;;;;;;5025397;28;20067;-62
2022/03/25 05:35:12;;;;;;;80.43;57.70;;;;;;;;;;5023378;28;20860;-61
2022/03/25 05:37:39;;;;;;;86.05;61.05;;;;;;;;;;5025276;28;20128;-61
2022/03/25 05:40:06;;;;;;;91.13;63.20;;;;;;;;;;5024067;28;20058;-63
2022/03/25 05:42:32;;;;;;;93.10;65.75;;;;;;;;;;5027015;28;20037;-63
2022/03/25 05:44:58;;;;;;;89.85;64.82;;;;;;;;;;5027780;28;20069;-62
2022/03/25 05:47:25;;;;;;;83.28;60.50;;;;;;;;;;5011900;28;20044;-62
2022/03/25 05:49:51;;;;;;;87.47;59.65;;;;;;;;;;5029694;28;20045;-62
2022/03/25 05:52:17;;;;;;;70.32;52.15;;;;;;;;;;5029672;28;20488;-62
2022/03/25 05:54:43;;;;;;;75.07;52.38;;;;;;;;;;5029116;28;20041;-62
2022/03/25 05:57:10;;;;;;;66.90;49.75;;;;;;;;;;5028676;28;20072;-62
2022/03/25 05:59:36;;;;;;;66.30;50.45;;;;;;;;;;5029971;28;20045;-63
2022/03/25 06:02:02;;;;;;;65.28;49.60;;;;;;;;;;5029561;28;20463;-64
2022/03/25 06:04:28;;;;;;;61.70;47.47;;;;;;;;;;5029856;28;20480;-62
2022/03/25 06:06:54;;;;;;;61.53;46.00;;;;;;;;;;5010950;28;20042;-63
2022/03/25 06:09:20;;;;;;;61.97;46.58;;;;;;;;;;5029719;28;20762;-63
2022/03/25 06:11:47;;;;;;;56.83;44.35;;;;;;;;;;5027959;28;20371;-62
2022/03/25 06:14:13;;;;;;;56.97;42.83;;;;;;;;;;5027815;28;20041;-63
2022/03/25 06:16:39;;;;;;;55.28;44.40;;;;;;;;;;5010914;28;20053;-63
2022/03/25 06:19:05;;;;;;;55.13;43.00;;;;;;;;;;5029369;28;20052;-64
2022/03/25 06:21:31;;;;;;;55.80;42.33;;;;;;;;;;5041342;28;20044;-62
2022/03/25 06:23:57;;;;;;;51.92;42.05;;;;;;;;;;5029510;28;20041;-63
2022/03/25 06:26:24;;;;;;;53.20;41.33;;;;;;;;;;5029088;28;20037;-62
2022/03/25 06:28:51;;;;;;;50.78;40.28;;;;;;;;;;5027901;28;20149;-62
2022/03/25 06:31:17;;;;;;;53.42;40.88;;;;;;;;;;5027671;28;20547;-62
2022/03/25 06:33:43;;;;;;;51.47;39.42;;;;;;;;;;5027712;28;20041;-63
2022/03/25 06:36:13;;;;;;;47.03;39.78;;;;;;;;;;5029002;28;20041;-62
2022/03/25 06:38:39;;;;;;;50.55;38.83;;;;;;;;;;5027880;28;20073;-63
2022/03/25 06:41:05;;;;;;;45.97;37.38;;;;;;;;;;5026810;28;20072;-62
2022/03/25 06:43:31;;;;;;;44.63;36.60;;;;;;;;;;5028620;28;20472;-62
2022/03/25 06:45:58;;;;;;;41.83;36.50;;;;;;;;;;5029701;28;20468;-62
2022/03/25 06:48:24;;;;;;;44.20;37.47;;;;;;;;;;5028059;28;20045;-63
2022/03/25 06:50:50;;;;;;;44.28;35.65;;;;;;;;;;5027722;28;20053;-62
2022/03/25 06:53:17;;;;;;;39.65;35.08;;;;;;;;;;5027530;28;20034;-62
2022/03/25 06:55:44;;;;;;;40.15;34.88;;;;;;;;;;5027864;28;20045;-62
2022/03/25 06:58:11;;;;;;;43.92;35.35;;;;;;;;;;5027600;28;20171;-61
2022/03/25 07:00:37;;;;;;;38.45;33.05;;;;;;;;;;5029147;28;20526;-61
2022/03/25 07:03:04;;;;;;;40.97;33.80;;;;;;;;;;5027949;28;20076;-64
2022/03/25 07:05:31;;;;;;;37.70;33.58;;;;;;;;;;5010449;28;20120;-62
2022/03/25 07:07:57;;;;;;;38.25;33.35;;;;;;;;;;5028291;28;20075;-63
2022/03/25 07:10:26;;;;;;;38.65;33.20;;;;;;;;;;5026638;28;20116;-62
2022/03/25 07:12:53;;;;;;;39.80;33.17;;;;;;;;;;5026992;28;20495;-63
2022/03/25 07:15:20;;;;;;;38.80;31.88;;;;;;;;;;5027053;28;20067;-62
2022/03/25 07:17:46;;;;;;;36.28;32.30;;;;;;;;;;5026866;28;20045;-63
2022/03/25 07:20:14;;;;;;;34.38;30.27;;;;;;;;;;5011020;28;20049;-62
2022/03/25 07:22:42;;;;;;;35.17;30.42;;;;;;;;;;5027937;28;20045;-62
2022/03/25 07:25:09;;;;;;;36.95;32.50;;;;;;;;;;5026886;28;20045;-62
2022/03/25 07:27:35;;;;;;;35.03;31.17;;;;;;;;;;5028793;28;20096;-63
2022/03/25 07:30:02;;;;;;;35.45;30.00;;;;;;;;;;5027621;28;20133;-63
2022/03/25 07:32:28;;;;;;;33.65;29.60;;;;;;;;;;5028322;28;20035;-63
2022/03/25 07:34:54;;;;;;;35.45;29.17;;;;;;;;;;5028749;28;20038;-63
2022/03/25 07:37:21;;;;;;;33.03;28.95;;;;;;;;;;5042872;28;20099;-62
2022/03/25 07:39:47;;;;;;;32.42;28.58;;;;;;;;;;5027076;28;20054;-65
2022/03/25 07:42:13;;;;;;;30.50;27.40;;;;;;;;;;5010663;28;20038;-63
2022/03/25 07:44:39;;;;;;;33.13;28.98;;;;;;;;;;5028733;28;20223;-62
2022/03/25 07:47:10;;;;;;;31.65;28.00;;;;;;;;;;5026265;28;20088;-62
2022/03/25 07:49:38;;;;;;;29.38;26.25;;;;;;;;;;5009704;28;20510;-63
2022/03/25 07:52:04;;;;;;;29.20;26.20;;;;;;;;;;5010562;28;20073;-63
2022/03/25 07:54:31;;;;;;;28.52;25.42;;;;;;;;;;5027753;28;20136;-62
2022/03/25 07:56:58;;;;;;;28.48;25.48;;;;;;;;;;5029850;28;20472;-63
2022/03/25 07:59:28;;;;;;;28.30;23.30;;;;;;;;;;5028875;28;20082;-62
2022/03/25 08:01:55;;;;;;;29.92;24.83;;;;;;;;;;5028128;28;20088;-63
2022/03/25 08:04:24;;;;;;;27.70;24.08;;;;;;;;;;5029249;28;20454;-62
2022/03/25 08:06:50;;;;;;;28.52;25.27;;;;;;;;;;5027973;28;20053;-61
2022/03/25 08:09:16;;;;;;;31.13;26.55;;;;;;;;;;5029360;28;20033;-61
2022/03/25 08:11:42;;;;;;;29.50;24.95;;;;;;;;;;5027648;28;20053;-61
2022/03/25 08:14:08;;;;;;;26.77;23.42;;;;;;;;;;5028223;28;20041;-61
2022/03/25 08:16:35;;;;;;;26.40;23.55;;;;;;;;;;5028167;28;20048;-61
2022/03/25 08:19:01;;;;;;;27.52;24.63;;;;;;;;;;5027153;28;20084;-63
2022/03/25 08:21:27;;;;;;;27.83;24.83;;;;;;;;;;5043154;28;20071;-62
2022/03/25 08:29:23;;;;;;;28.73;25.60;;;;;;;;;;5026037;28;20041;-61
2022/03/25 08:31:49;;;;;;;29.70;26.50;;;;;;;;;;5026124;28;20120;-62
2022/03/25 08:34:16;;;;;;;28.88;25.77;;;;;;;;;;5022077;28;20378;-61
2022/03/25 08:36:43;;;;;;;29.50;26.33;;;;;;;;;;5031178;28;20053;-60
2022/03/25 08:39:09;;;;;;;30.23;26.92;;;;;;;;;;5041579;28;20056;-63
2022/03/25 08:41:35;;;;;;;33.85;27.05;;;;;;;;;;5025673;28;20041;-62
2022/03/25 08:44:02;;;;;;;31.50;28.23;;;;;;;;;;5010456;28;20132;-63
2022/03/25 08:46:28;;;;;;;33.45;28.88;;;;;;;;;;5025380;28;20395;-62
2022/03/25 08:48:54;;;;;;;30.23;27.08;;;;;;;;;;5025942;28;20093;-63
2022/03/25 08:51:20;;;;;;;30.63;27.52;;;;;;;;;;5026249;28;20515;-62
2022/03/25 08:53:47;;;;;;;31.90;27.88;;;;;;;;;;5024327;28;20045;-63
2022/03/25 08:56:13;;;;;;;30.88;27.63;;;;;;;;;;5026442;28;20398;-63
2022/03/25 08:58:40;;;;;;;31.80;28.55;;;;;;;;;;5027427;28;20071;-63
2022/03/25 09:01:06;;;;;;;31.17;27.90;;;;;;;;;;5026358;28;20124;-63
2022/03/25 09:03:32;;;;;;;31.20;28.05;;;;;;;;;;5024580;28;20459;-62
2022/03/25 09:05:59;;;;;;;32.45;27.98;;;;;;;;;;5026730;28;20044;-62
2022/03/25 09:08:25;;;;;;;30.27;27.05;;;;;;;;;;5026600;28;20041;-62
2022/03/25 09:10:53;;;;;;;29.98;26.80;;;;;;;;;;5026307;28;20083;-62
2022/03/25 09:13:19;;;;;;;31.05;27.77;;;;;;;;;;5027042;28;20044;-64
2022/03/25 09:15:46;;;;;;;29.98;26.80;;;;;;;;;;5026793;28;20049;-63
2022/03/25 09:18:12;;;;;;;29.88;26.63;;;;;;;;;;5028684;28;20511;-63
2022/03/25 09:20:39;;;;;;;30.95;27.40;;;;;;;;;;5029886;28;20200;-63
2022/03/25 09:23:05;;;;;;;30.02;26.98;;;;;;;;;;5030802;28;20041;-63
2022/03/25 09:25:32;;;;;;;29.00;26.13;;;;;;;;;;5029663;28;20049;-64
2022/03/25 09:27:58;;;;;;;28.58;25.58;;;;;;;;;;5030540;28;20449;-62
2022/03/25 09:30:24;;;;;;;28.42;25.45;;;;;;;;;;5031059;28;20041;-62
2022/03/25 09:32:50;;;;;;;29.30;26.15;;;;;;;;;;5028683;28;20044;-63
2022/03/25 09:35:16;;;;;;;28.15;25.20;;;;;;;;;;5031517;28;20045;-63
2022/03/25 09:37:47;;;;;;;28.52;24.88;;;;;;;;;;5032571;28;20075;-63
2022/03/25 09:40:13;;;;;;;29.27;25.00;;;;;;;;;;5029218;28;20083;-64
2022/03/25 09:42:40;;;;;;;32.38;24.50;;;;;;;;;;5029780;28;20046;-63
2022/03/25 09:45:06;;;;;;;26.63;24.00;;;;;;;;;;5030726;28;20115;-63
2022/03/25 09:47:33;;;;;;;24.95;22.42;;;;;;;;;;5030155;28;20041;-64
2022/03/25 09:50:03;;;;;;;26.92;24.17;;;;;;;;;;5029210;28;20041;-62
2022/03/25 09:52:31;;;;;;;25.70;22.98;;;;;;;;;;5028420;28;20065;-64
2022/03/25 09:54:58;;;;;;;25.65;23.05;;;;;;;;;;5030266;28;20525;-63
2022/03/25 09:57:25;;;;;;;25.77;23.05;;;;;;;;;;5028746;28;20171;-63
2022/03/25 09:59:51;;;;;;;25.05;22.55;;;;;;;;;;5027286;28;20073;-62
2022/03/25 10:02:17;;;;;;;24.38;21.83;;;;;;;;;;5028696;28;20037;-63
2022/03/25 10:04:43;;;;;;;24.63;21.45;;;;;;;;;;5029029;28;20045;-63
2022/03/25 10:07:17;;;;;;;24.40;21.80;;;;;;;;;;5027069;28;20045;-62
2022/03/25 10:09:46;;;;;;;25.17;22.52;;;;;;;;;;5029962;28;20034;-63
2022/03/25 10:12:26;;;;;;;25.65;20.75;;;;;;;;;;5029108;28;20041;-62
2022/03/25 10:15:10;;;;;;;25.35;21.15;;;;;;;;;;5029506;28;20120;-64
2022/03/25 10:17:48;;;;;;;21.98;19.67;;;;;;;;;;5029971;28;20037;-64
2022/03/25 10:20:15;;;;;;;22.70;20.30;;;;;;;;;;5029709;28;20140;-64
2022/03/25 10:22:56;;;;;;;21.45;19.15;;;;;;;;;;5028961;28;20141;-62
2022/03/25 10:25:34;;;;;;;23.17;19.63;;;;;;;;;;5027895;28;20499;-63
2022/03/25 10:28:00;;;;;;;22.13;19.50;;;;;;;;;;5031009;28;20050;-63
2022/03/25 10:30:38;;;;;;;23.60;20.77;;;;;;;;;;5026518;28;20037;-63
2022/03/25 10:33:14;;;;;;;31.98;18.80;;;;;;;;;;5028524;28;20041;-62
2022/03/25 10:35:53;;;;;;;23.70;19.95;;;;;;;;;;5027591;28;20049;-63
2022/03/25 10:38:20;;;;;;;21.10;18.90;;;;;;;;;;5028857;28;20052;-64
2022/03/25 10:40:53;;;;;;;20.15;17.92;;;;;;;;;;5028909;28;20392;-63
2022/03/25 10:43:19;;;;;;;23.83;19.13;;;;;;;;;;5028366;28;20037;-63
2022/03/25 10:45:45;;;;;;;25.08;21.20;;;;;;;;;;5028885;28;20041;-63
2022/03/25 10:48:20;;;;;;;27.73;21.35;;;;;;;;;;5027958;28;20041;-63
2022/03/25 10:51:01;;;;;;;23.65;20.10;;;;;;;;;;5028197;28;20052;-62
2022/03/25 10:53:28;;;;;;;24.55;20.63;;;;;;;;;;5029220;28;20041;-62
2022/03/25 10:55:55;;;;;;;24.65;20.05;;;;;;;;;;5024059;28;20041;-64
2022/03/25 10:58:21;;;;;;;22.20;19.83;;;;;;;;;;5020338;28;20064;-63
2022/03/25 11:00:47;;;;;;;21.75;19.45;;;;;;;;;;5024429;28;20494;-62
2022/03/25 11:03:14;;;;;;;49.50;20.13;;;;;;;;;;5026083;28;20045;-63
2022/03/25 11:05:40;;;;;;;24.35;20.85;;;;;;;;;;5028165;28;20816;-63
2022/03/25 11:08:07;;;;;;;22.50;19.30;;;;;;;;;;5027261;28;20132;-64
2022/03/25 11:10:33;;;;;;;24.30;19.70;;;;;;;;;;5028292;28;20046;-64
2022/03/25 11:13:02;;;;;;;20.17;18.00;;;;;;;;;;5028660;28;20045;-65
2022/03/25 11:15:29;;;;;;;23.73;19.63;;;;;;;;;;5026628;28;20565;-65
2022/03/25 11:17:55;;;;;;;20.08;18.00;;;;;;;;;;5025098;28;20391;-63
2022/03/25 11:20:21;;;;;;;21.13;18.80;;;;;;;;;;5027727;28;20048;-64
2022/03/25 11:23:00;;;;;;;17.67;15.73;;;;;;;;;;5027567;28;20295;-63
2022/03/25 11:25:28;;;;;;;17.02;13.63;;;;;;;;;;5027777;28;20396;-63
2022/03/25 11:28:05;;;;;;;16.23;13.70;;;;;;;;;;5027817;28;20052;-63
2022/03/25 11:30:32;;;;;;;15.57;13.15;;;;;;;;;;5027365;28;20095;-64
2022/03/25 11:32:58;;;;;;;16.25;13.40;;;;;;;;;;5025647;28;20056;-64
2022/03/25 11:35:24;;;;;;;20.20;14.27;;;;;;;;;;5027447;28;20034;-63
2022/03/25 11:38:09;;;;;;;19.20;14.50;;;;;;;;;;5028488;28;20041;-63
2022/03/25 11:40:35;;;;;;;20.95;18.75;;;;;;;;;;5027868;28;20521;-63
2022/03/25 11:43:11;;;;;;;23.52;20.08;;;;;;;;;;5027146;28;20592;-63
2022/03/25 11:45:38;;;;;;;24.27;21.67;;;;;;;;;;5039577;28;20478;-63
2022/03/25 11:48:04;;;;;;;24.10;19.38;;;;;;;;;;5028312;28;20119;-63
2022/03/25 11:50:35;;;;;;;25.25;21.50;;;;;;;;;;5026409;28;20048;-65
2022/03/25 11:53:13;;;;;;;24.02;21.42;;;;;;;;;;5027999;28;20033;-64
2022/03/25 11:55:55;;;;;;;24.77;22.15;;;;;;;;;;5026524;28;20042;-64
2022/03/25 11:58:21;;;;;;;28.27;23.08;;;;;;;;;;5025708;28;20145;-64
2022/03/25 12:00:48;;;;;;;35.78;24.35;;;;;;;;;;5027542;28;20037;-64
2022/03/25 12:03:16;;;;;;;30.38;23.90;;;;;;;;;;5026830;28;20040;-63
2022/03/25 12:05:58;;;;;;;23.40;19.20;;;;;;;;;;5024054;28;20053;-66
2022/03/25 12:08:24;;;;;;;24.07;20.33;;;;;;;;;;5027093;28;20045;-64
2022/03/25 12:10:52;;;;;;;28.23;25.23;;;;;;;;;;5028962;28;20292;-64
2022/03/25 12:13:18;;;;;;;33.67;29.63;;;;;;;;;;5028385;28;20045;-64
2022/03/25 12:15:49;;;;;;;32.60;29.20;;;;;;;;;;5028178;28;20180;-63
2022/03/25 12:18:44;;;;;;;37.55;33.58;;;;;;;;;;5028089;28;20128;-64
2022/03/25 12:21:11;;;;;;;38.15;34.05;;;;;;;;;;5011026;28;20056;-62
2022/03/25 12:23:38;;;;;;;38.85;34.67;;;;;;;;;;5028415;28;20038;-63
2022/03/25 12:26:05;;;;;;;39.25;35.15;;;;;;;;;;5025095;28;20084;-62
2022/03/25 12:28:31;;;;;;;40.65;36.38;;;;;;;;;;5027553;28;20041;-64
2022/03/25 12:31:02;;;;;;;39.35;35.25;;;;;;;;;;5028102;28;20087;-64
2022/03/25 12:33:30;;;;;;;39.05;34.65;;;;;;;;;;5026571;28;20491;-63
2022/03/25 12:35:58;;;;;;;39.88;34.28;;;;;;;;;;5027983;28;20037;-63
2022/03/25 12:38:25;;;;;;;42.03;35.42;;;;;;;;;;5028089;28;20159;-63
2022/03/25 12:40:52;;;;;;;40.55;36.22;;;;;;;;;;5025317;28;20037;-64
2022/03/25 12:43:18;;;;;;;44.03;39.28;;;;;;;;;;5026310;28;20033;-64
2022/03/25 12:45:46;;;;;;;44.47;39.78;;;;;;;;;;5026689;28;20041;-64
2022/03/25 12:48:12;;;;;;;47.92;41.97;;;;;;;;;;5009116;28;20418;-64
2022/03/25 12:50:41;;;;;;;47.35;41.75;;;;;;;;;;5026424;28;20049;-63
2022/03/25 12:53:07;;;;;;;46.45;41.45;;;;;;;;;;5026057;28;20044;-64
2022/03/25 12:55:33;;;;;;;48.05;43.05;;;;;;;;;;5024490;28;20041;-63
2022/03/25 12:58:07;;;;;;;50.85;45.55;;;;;;;;;;5024920;28;20063;-63
2022/03/25 13:00:38;;;;;;;47.58;42.72;;;;;;;;;;5026836;28;20083;-66
2022/03/25 13:03:04;;;;;;;49.90;44.65;;;;;;;;;;5025144;28;20088;-64
2022/03/25 13:05:32;;;;;;;49.75;44.65;;;;;;;;;;5026138;28;20042;-63
2022/03/25 13:07:58;;;;;;;54.15;48.55;;;;;;;;;;5026702;28;20064;-64
2022/03/25 13:10:25;;;;;;;54.63;48.95;;;;;;;;;;5024429;28;20038;-64
2022/03/25 13:12:52;;;;;;;50.15;44.97;;;;;;;;;;5024517;28;20582;-63
2022/03/25 13:15:19;;;;;;;50.65;45.35;;;;;;;;;;5026382;28;20033;-63
2022/03/25 13:17:46;;;;;;;51.03;45.53;;;;;;;;;;5040285;28;20403;-64
2022/03/25 13:20:20;;;;;;;48.00;42.92;;;;;;;;;;5025791;28;20564;-63
2022/03/25 13:22:54;;;;;;;48.53;43.53;;;;;;;;;;5024929;28;20491;-63
2022/03/25 13:25:27;;;;;;;49.50;44.30;;;;;;;;;;5040493;28;20041;-63
2022/03/25 13:27:54;;;;;;;47.65;42.63;;;;;;;;;;5025887;28;20037;-63
2022/03/25 13:30:22;;;;;;;48.63;43.63;;;;;;;;;;5041275;28;20080;-63
2022/03/25 13:32:55;;;;;;;47.90;43.22;;;;;;;;;;5007513;28;20767;-63
2022/03/25 13:35:21;;;;;;;47.33;42.42;;;;;;;;;;5024703;28;20041;-63
2022/03/25 13:37:57;;;;;;;46.55;41.67;;;;;;;;;;5024146;28;20045;-64
2022/03/25 13:40:30;;;;;;;45.00;40.53;;;;;;;;;;5024081;28;20412;-64
2022/03/25 13:42:56;;;;;;;47.80;42.90;;;;;;;;;;5007171;28;20033;-64
2022/03/25 13:45:23;;;;;;;46.55;41.70;;;;;;;;;;5027226;28;20056;-63
2022/03/25 13:48:01;;;;;;;45.58;40.67;;;;;;;;;;5023496;28;20038;-62
2022/03/25 13:50:28;;;;;;;46.20;41.10;;;;;;;;;;5025630;28;20108;-64
2022/03/25 13:52:55;;;;;;;47.22;42.15;;;;;;;;;;5024254;28;20057;-63
2022/03/25 13:55:30;;;;;;;50.05;44.63;;;;;;;;;;5023439;28;20068;-63
2022/03/25 13:57:58;;;;;;;48.28;43.03;;;;;;;;;;5007150;28;20556;-63
2022/03/25 14:00:31;;;;;;;48.45;43.22;;;;;;;;;;5025234;28;20080;-63
2022/03/25 14:02:57;;;;;;;;;;;;;;;;;;5007097;28;20484;-63
2022/03/25 14:05:26;;;;;;;50.25;44.42;;;;;;;;;;5027464;28;19928;-63
2022/03/25 14:07:57;;;;;;;52.30;44.78;;;;;;;;;;5028647;28;20037;-64
2022/03/25 14:10:24;;;;;;;49.47;44.15;;;;;;;;;;5028239;28;20064;-63
2022/03/25 14:13:01;;;;;;;48.53;43.50;;;;;;;;;;5029009;28;20496;-63
2022/03/25 14:15:28;;;;;;;49.20;43.80;;;;;;;;;;5027921;28;20515;-62
2022/03/25 14:17:54;;;;;;;49.75;44.33;;;;;;;;;;5027212;28;20551;-62
2022/03/25 14:20:22;;;;;;;49.70;44.60;;;;;;;;;;5029317;28;20051;-64